Time;durP1;ratioP1;P1;durP2;ratioP2;P2;SDS_P1;SDS_P2;PMS_P1;PMS_P2;Temp;Humidity;BMP_temperature;BMP_pressure;BME280_temperature;BME280_humidity;BME280_pressure;Samples;Min_cycle;Max_cycle;Signal;HPM_P1;HPM_P2
2023/02/27 00:01:07;;;;;;;10.00;7.80;;;;;;;4.24;95.35;100959.13;105441;1254;63829;-86
2023/02/27 00:03:36;;;;;;;9.90;7.10;;;;;;;4.19;95.43;100958.40;105697;1254;73665;-86
2023/02/27 00:06:03;;;;;;;10.70;8.80;;;;;;;4.13;95.34;100958.05;105590;1259;62773;-86
2023/02/27 00:08:33;;;;;;;9.40;7.90;;;;;;;4.07;95.68;100960.47;105643;1255;61332;-86
2023/02/27 00:11:00;;;;;;;10.80;8.30;;;;;;;4.06;96.36;100948.19;105685;1254;73822;-88
2023/02/27 00:13:27;;;;;;;14.20;9.40;;;;;;;4.03;96.08;100959.52;105756;1261;64806;-86
2023/02/27 00:15:58;;;;;;;10.50;9.30;;;;;;;3.99;96.17;100957.23;105662;1254;73459;-87
2023/02/27 00:18:29;;;;;;;9.80;8.60;;;;;;;3.98;96.40;100960.20;105578;1257;60607;-87
2023/02/27 00:20:56;;;;;;;9.70;7.80;;;;;;;3.94;95.97;100957.52;105665;1259;61118;-88
2023/02/27 00:23:23;;;;;;;13.40;8.90;;;;;;;3.90;96.34;100954.52;109390;1254;74677;-87
2023/02/27 00:25:54;;;;;;;12.20;8.10;;;;;;;3.87;96.30;100946.11;109244;1254;63913;-85
2023/02/27 00:28:21;;;;;;;8.80;7.70;;;;;;;3.86;96.71;100960.52;109396;1254;73525;-85
2023/02/27 00:30:48;;;;;;;11.00;7.80;;;;;;;3.92;97.59;100964.66;109379;1254;60353;-85
2023/02/27 00:33:15;;;;;;;9.20;8.20;;;;;;;4.02;97.49;100969.96;109311;1254;59955;-85
2023/02/27 00:35:42;;;;;;;11.40;8.90;;;;;;;4.05;96.96;100970.19;109390;1254;73759;-85
2023/02/27 00:38:09;;;;;;;8.30;7.50;;;;;;;4.04;96.77;100962.44;109424;1254;63828;-86
2023/02/27 00:40:38;;;;;;;8.70;7.60;;;;;;;4.04;96.53;100965.55;109417;1254;73559;-84
2023/02/27 00:43:05;;;;;;;8.60;6.70;;;;;;;4.05;96.57;100967.08;109263;1254;60869;-86
2023/02/27 00:45:32;;;;;;;9.40;6.50;;;;;;;4.05;96.36;100958.41;109453;1256;60605;-85
2023/02/27 00:48:00;;;;;;;9.10;6.70;;;;;;;4.03;96.35;100957.46;109425;1254;73772;-84
2023/02/27 00:50:27;;;;;;;11.50;7.00;;;;;;;4.04;97.04;100966.08;109353;1254;64764;-84
2023/02/27 00:52:54;;;;;;;9.20;6.70;;;;;;;4.09;96.94;100966.29;109403;1254;74008;-85
2023/02/27 00:55:20;;;;;;;12.10;8.20;;;;;;;4.09;96.66;100957.47;109395;1254;60300;-85
2023/02/27 00:57:47;;;;;;;9.70;6.60;;;;;;;4.07;96.55;100951.12;109250;1254;61112;-85
2023/02/27 01:00:16;;;;;;;8.00;7.20;;;;;;;4.05;96.25;100944.59;109400;1254;74790;-84
2023/02/27 01:02:45;;;;;;;7.10;6.20;;;;;;;4.07;96.15;100946.80;109402;1254;63613;-85
2023/02/27 01:05:13;;;;;;;6.80;5.90;;;;;;;4.09;96.33;100951.24;109392;1254;73493;-83
2023/02/27 01:07:41;;;;;;;10.90;6.90;;;;;;;4.11;96.31;100956.72;109411;1254;61904;-84
2023/02/27 01:10:08;;;;;;;10.90;6.40;;;;;;;4.10;96.41;100955.18;109424;1254;59956;-84
2023/02/27 01:12:37;;;;;;;10.30;6.60;;;;;;;4.09;96.48;100951.23;109385;1254;74807;-84
2023/02/27 01:15:06;;;;;;;8.40;6.80;;;;;;;4.12;96.54;100958.23;108875;1254;707398;-84
2023/02/27 01:19:28;;;;;;;9.80;6.90;;;;;;;4.08;96.31;100984.83;103245;1282;617313;-88
2023/02/27 01:21:55;;;;;;;11.80;8.30;;;;;;;4.11;96.41;100996.84;105071;1268;61909;-83
2023/02/27 01:24:22;;;;;;;8.60;7.20;;;;;;;4.15;96.48;101006.27;105104;1269;59369;-83
2023/02/27 01:26:51;;;;;;;7.80;7.00;;;;;;;4.19;96.60;101010.15;105840;1263;73214;-82
2023/02/27 01:29:19;;;;;;;11.20;7.10;;;;;;;4.22;97.04;101015.07;105207;1263;64736;-86
2023/02/27 01:31:47;;;;;;;9.20;7.10;;;;;;;4.26;97.01;101010.11;104479;1261;821385;-89
2023/02/27 01:34:17;;;;;;;12.30;6.70;;;;;;;4.31;96.62;100996.48;105469;1256;59717;-84
2023/02/27 01:36:45;;;;;;;11.30;7.70;;;;;;;4.27;95.78;101001.60;105519;1256;61074;-86
2023/02/27 01:39:16;;;;;;;10.00;7.60;;;;;;;4.21;95.74;101009.38;105638;1260;71965;-84
2023/02/27 01:41:43;;;;;;;8.60;7.30;;;;;;;4.22;96.06;101020.27;105555;1258;64078;-85
2023/02/27 01:44:12;;;;;;;8.80;7.00;;;;;;;4.23;96.33;101027.17;105401;1262;73966;-85
2023/02/27 01:46:40;;;;;;;11.90;6.90;;;;;;;4.26;96.58;101014.29;105635;1260;61281;-87
2023/02/27 01:49:15;;;;;;;8.20;6.70;;;;;;;4.29;96.39;101010.02;105425;1256;61495;-85
2023/02/27 01:51:45;;;;;;;10.40;7.50;;;;;;;4.31;95.90;101012.75;105952;1251;74388;-85
2023/02/27 01:54:14;;;;;;;10.80;7.20;;;;;;;4.30;95.60;101014.35;105897;1257;64701;-85
2023/02/27 01:56:45;;;;;;;9.00;6.70;;;;;;;4.30;95.42;101011.05;107414;1251;73716;-84
2023/02/27 01:59:12;;;;;;;9.10;6.60;;;;;;;4.27;95.12;101007.14;108883;1251;60960;-85
2023/02/27 02:01:39;;;;;;;9.50;6.90;;;;;;;4.25;95.21;101005.15;109623;1251;60471;-84
2023/02/27 02:04:23;;;;;;;8.70;7.00;;;;;;;4.20;95.19;101002.33;109546;1251;73109;-85
2023/02/27 02:06:54;;;;;;;11.10;7.30;;;;;;;4.13;95.18;101000.09;106955;1251;63682;-85
2023/02/27 02:09:21;;;;;;;8.50;6.50;;;;;;;4.05;95.33;101001.16;105834;1258;73854;-84
2023/02/27 02:11:48;;;;;;;9.50;7.40;;;;;;;4.00;95.45;101004.42;106047;1251;60124;-86
2023/02/27 02:14:22;;;;;;;11.30;8.20;;;;;;;3.99;95.60;100998.74;106064;1256;61456;-86
2023/02/27 02:17:03;;;;;;;9.30;8.00;;;;;;;4.00;95.92;101001.15;105785;1251;74048;-87
2023/02/27 02:19:42;;;;;;;8.10;7.10;;;;;;;4.01;95.97;101004.73;105926;1251;63923;-82
2023/02/27 02:22:31;;;;;;;9.20;6.90;;;;;;;3.96;95.95;101006.77;105968;1256;73629;-87
2023/02/27 02:25:36;;;;;;;9.60;7.40;;;;;;;3.90;96.09;101023.70;105952;1255;61258;-87
2023/02/27 02:28:06;;;;;;;11.60;8.00;;;;;;;3.88;96.67;101033.46;106034;1251;60063;-82
2023/02/27 02:30:40;;;;;;;12.00;7.50;;;;;;;3.93;96.85;101029.51;106077;1256;73001;-84
2023/02/27 02:33:35;;;;;;;9.80;7.30;;;;;;;4.01;96.76;101030.16;106011;1251;64793;-87
2023/02/27 02:36:09;;;;;;;9.70;8.00;;;;;;;3.96;96.15;101034.11;106492;1256;72388;-84
2023/02/27 02:38:58;;;;;;;8.20;7.30;;;;;;;3.89;96.34;101041.72;106030;1251;62780;-87
2023/02/27 02:41:56;;;;;;;10.30;7.70;;;;;;;3.85;96.82;101049.79;106344;1251;60383;-83
2023/02/27 02:44:43;;;;;;;11.20;8.40;;;;;;;3.86;97.02;101071.38;108719;1251;73886;-83
2023/02/27 02:47:19;;;;;;;8.40;7.00;;;;;;;3.93;97.65;101064.29;106390;1256;63633;-87
2023/02/27 02:50:04;;;;;;;9.30;7.80;;;;;;;3.96;97.00;101040.31;105965;1251;72653;-87
2023/02/27 02:52:35;;;;;;;;;;;;;;;3.93;97.05;101042.81;105999;1255;62347;-84
2023/02/27 02:55:22;;;;;;;11.20;7.80;;;;;;;3.96;97.37;101037.38;106001;1255;59633;-86
2023/02/27 02:57:52;;;;;;;11.10;7.00;;;;;;;3.99;97.41;101057.39;105925;1257;72222;-88
2023/02/27 03:00:24;;;;;;;9.70;6.70;;;;;;;3.98;97.11;101057.58;106015;1255;64822;-85
2023/02/27 03:02:54;;;;;;;8.00;7.20;;;;;;;3.96;97.25;101048.46;105997;1256;73850;-85
2023/02/27 03:05:25;;;;;;;10.00;7.10;;;;;;;3.91;97.10;101027.48;105963;1257;61205;-86
2023/02/27 03:08:01;;;;;;;10.20;8.10;;;;;;;3.86;97.10;101006.84;106198;1251;61051;-83
2023/02/27 03:10:45;;;;;;;8.10;7.30;;;;;;;3.83;96.92;100975.13;106274;1255;74118;-85
2023/02/27 03:13:16;;;;;;;;;;;;;;;3.80;96.84;100933.86;106082;1255;64868;-86
2023/02/27 03:15:48;;;;;;;6.70;5.10;;;;;;;3.69;96.51;100955.08;106054;1255;73476;-87
2023/02/27 03:18:21;;;;;;;6.10;5.40;;;;;;;3.53;96.47;100963.95;105912;1257;61981;-86
2023/02/27 03:20:55;;;;;;;5.80;5.20;;;;;;;3.46;97.11;100986.76;106015;1251;61007;-87
2023/02/27 03:23:35;;;;;;;5.60;4.90;;;;;;;3.39;97.31;100991.59;109545;1251;73927;-85
2023/02/27 03:26:05;;;;;;;6.80;5.50;;;;;;;3.36;97.73;101005.52;109209;1256;64717;-85
2023/02/27 03:28:36;;;;;;;6.50;5.40;;;;;;;3.36;98.31;101014.31;109258;1256;73736;-84
2023/02/27 03:31:27;;;;;;;6.00;5.20;;;;;;;3.36;98.31;101003.27;109111;1256;61461;-85
2023/02/27 03:34:10;;;;;;;6.30;4.40;;;;;;;3.39;98.44;101006.48;109202;1256;60115;-86
2023/02/27 03:36:53;;;;;;;6.30;5.30;;;;;;;3.38;98.20;100994.39;109172;1256;74042;-87
2023/02/27 03:39:27;;;;;;;6.10;4.80;;;;;;;3.39;98.84;100997.15;109282;1255;65155;-85
2023/02/27 03:42:33;;;;;;;9.30;6.10;;;;;;;3.43;98.93;101003.45;109252;1256;73441;-84
2023/02/27 03:45:14;;;;;;;6.40;5.60;;;;;;;3.45;99.16;100994.23;108900;1261;60276;-85
2023/02/27 03:47:41;;;;;;;7.00;6.30;;;;;;;3.51;99.32;101004.61;108897;1261;60261;-85
2023/02/27 03:50:09;;;;;;;6.80;5.50;;;;;;;3.54;99.25;101023.22;108858;1261;72313;-85
2023/02/27 03:52:36;;;;;;;9.60;7.30;;;;;;;3.62;99.23;101046.02;108815;1261;64860;-84
2023/02/27 03:55:16;;;;;;;9.70;6.30;;;;;;;3.69;99.10;101056.41;108860;1261;74174;-85
2023/02/27 03:57:45;;;;;;;7.60;6.20;;;;;;;3.72;98.76;101040.23;108928;1258;61806;-85
2023/02/27 04:00:15;;;;;;;10.70;6.50;;;;;;;3.76;98.91;101037.04;109087;1259;60306;-87
2023/02/27 04:02:46;;;;;;;9.70;7.70;;;;;;;3.78;98.99;101038.56;109040;1259;74088;-84
2023/02/27 04:05:16;;;;;;;9.30;6.70;;;;;;;3.84;99.49;101040.98;108940;1258;63746;-85
2023/02/27 04:08:02;;;;;;;;;;;;;;;3.87;98.83;101034.52;109078;1259;73710;-84
2023/02/27 04:10:41;;;;;;;9.90;8.30;;;;;;;3.85;98.52;101035.08;109153;1258;61943;-86
2023/02/27 04:13:17;;;;;;;7.50;6.40;;;;;;;3.83;98.67;101022.85;109241;1258;61188;-85
2023/02/27 04:16:00;;;;;;;9.50;6.40;;;;;;;3.84;98.90;101031.45;109156;1258;71998;-86
2023/02/27 04:19:00;;;;;;;10.20;7.80;;;;;;;3.91;99.15;101044.26;108990;1259;63968;-87
2023/02/27 04:22:02;;;;;;;9.60;7.70;;;;;;;3.97;99.10;101027.67;109286;1251;73552;-85
2023/02/27 04:25:03;;;;;;;9.40;7.40;;;;;;;3.97;98.88;101030.27;109613;1251;61313;-88
2023/02/27 04:27:36;;;;;;;10.90;8.70;;;;;;;4.01;98.72;101031.38;109667;1251;61362;-85
2023/02/27 04:30:09;;;;;;;12.50;9.30;;;;;;;4.03;98.49;101033.06;109643;1251;73055;-85
2023/02/27 04:32:40;;;;;;;12.00;8.90;;;;;;;4.04;98.19;101023.14;109581;1254;63946;-85
2023/02/27 04:35:10;;;;;;;11.70;8.70;;;;;;;4.02;98.17;101014.21;109636;1251;74842;-85
2023/02/27 04:38:02;;;;;;;9.10;7.60;;;;;;;4.02;98.06;101009.71;109472;1251;63276;-85
2023/02/27 04:40:34;;;;;;;14.10;8.60;;;;;;;4.01;98.19;101002.83;109581;1251;61489;-85
2023/02/27 04:43:03;;;;;;;13.00;9.20;;;;;;;3.99;98.08;101017.59;109551;1251;72985;-84
2023/02/27 04:45:29;;;;;;;12.40;10.00;;;;;;;3.95;98.25;101031.17;109683;1251;64730;-85
2023/02/27 04:48:03;;;;;;;13.70;10.20;;;;;;;3.93;98.30;101025.87;109664;1251;72620;-85
2023/02/27 04:50:53;;;;;;;14.90;10.40;;;;;;;3.90;97.93;101021.96;109540;1251;61004;-84
2023/02/27 04:54:09;;;;;;;13.80;11.10;;;;;;;3.89;98.28;101024.41;109548;1251;61054;-86
2023/02/27 04:56:44;;;;;;;17.30;11.00;;;;;;;3.98;98.98;101015.37;109512;1250;73928;-84
2023/02/27 04:59:15;;;;;;;16.60;12.00;;;;;;;4.03;98.70;101010.22;109567;1251;64632;-86
2023/02/27 05:01:46;;;;;;;19.40;13.30;;;;;;;4.02;98.48;101002.48;109551;1251;72407;-89
2023/02/27 05:04:15;;;;;;;18.10;14.20;;;;;;;4.05;98.90;101008.95;109421;1251;60197;-86
2023/02/27 05:06:42;;;;;;;24.40;16.00;;;;;;;4.09;98.86;101013.00;109478;1251;60095;-84
2023/02/27 05:09:16;;;;;;;18.20;12.80;;;;;;;4.11;98.59;101019.52;109558;1251;74226;-86
2023/02/27 05:11:53;;;;;;;14.00;11.10;;;;;;;4.12;98.01;101017.39;109591;1251;63743;-84
2023/02/27 05:14:38;;;;;;;18.60;12.70;;;;;;;4.04;97.71;101006.38;109426;1251;73430;-85
2023/02/27 05:20:04;;;;;;;17.00;12.90;;;;;;;3.99;97.99;101017.76;106227;1289;614285;-87
2023/02/27 05:22:45;;;;;;;17.20;12.40;;;;;;;3.93;98.28;101036.95;106126;1264;61895;-85
2023/02/27 05:25:13;;;;;;;;;;;;;;;3.96;98.50;101036.01;105947;1266;61330;-86
2023/02/27 05:28:03;;;;;;;22.20;13.70;;;;;;;3.98;98.50;101047.21;106730;1253;73216;-85
2023/02/27 05:30:37;;;;;;;15.50;10.90;;;;;;;3.94;98.13;101059.56;106688;1253;63790;-85
2023/02/27 05:33:24;;;;;;;13.50;10.20;;;;;;;3.89;98.06;101063.50;107241;1254;730996;-87
2023/02/27 05:35:58;;;;;;;15.60;11.20;;;;;;;3.90;98.61;101062.79;106712;1251;61890;-84
2023/02/27 05:38:46;;;;;;;19.40;11.70;;;;;;;3.92;98.57;101068.63;107551;1251;61320;-84
2023/02/27 05:41:19;;;;;;;13.90;10.70;;;;;;;3.94;99.02;101076.00;108730;1251;71989;-84
2023/02/27 05:43:57;;;;;;;19.70;13.00;;;;;;;4.00;99.03;101074.48;106496;1256;64695;-85
2023/02/27 05:46:31;;;;;;;19.10;13.40;;;;;;;4.04;99.03;101080.61;106207;1254;73453;-86
2023/02/27 05:49:24;;;;;;;23.80;14.90;;;;;;;4.04;98.90;101080.77;106397;1254;60787;-84
2023/02/27 05:51:52;;;;;;;18.90;12.80;;;;;;;4.03;98.97;101085.46;106382;1251;61890;-84
2023/02/27 05:54:34;;;;;;;18.80;12.40;;;;;;;4.03;98.58;101089.11;106167;1251;74965;-87
2023/02/27 05:57:01;;;;;;;18.00;12.20;;;;;;;4.01;98.49;101087.25;106266;1254;63007;-85
2023/02/27 05:59:33;;;;;;;18.30;12.90;;;;;;;4.00;98.83;101090.55;106384;1256;71328;-87
2023/02/27 06:02:06;;;;;;;21.40;13.30;;;;;;;4.04;99.24;101084.92;106647;1254;63490;-87
2023/02/27 06:04:39;;;;;;;18.30;13.60;;;;;;;4.11;99.41;101088.38;106246;1251;61159;-87
2023/02/27 06:07:06;;;;;;;23.00;14.50;;;;;;;4.15;99.38;101091.73;106393;1251;72790;-87
2023/02/27 06:09:35;;;;;;;20.50;13.60;;;;;;;4.22;99.40;101083.27;106517;1251;65861;-84
2023/02/27 06:12:02;;;;;;;23.20;15.10;;;;;;;4.27;99.07;101080.19;106282;1254;73649;-85
2023/02/27 06:14:30;;;;;;;16.40;12.70;;;;;;;4.25;98.71;101083.00;109149;1251;59513;-86
2023/02/27 06:17:00;;;;;;;18.30;12.50;;;;;;;4.28;98.58;101084.64;109662;1251;60258;-85
2023/02/27 06:19:29;;;;;;;18.60;12.40;;;;;;;4.31;98.09;101088.89;109673;1251;72510;-85
2023/02/27 06:21:56;;;;;;;20.40;12.70;;;;;;;4.30;98.05;101087.55;109648;1251;63534;-86
2023/02/27 06:24:22;;;;;;;17.60;12.10;;;;;;;4.30;98.12;101083.38;109785;1250;72684;-86
2023/02/27 06:26:49;;;;;;;18.40;12.80;;;;;;;4.32;98.46;101082.11;109705;1251;60301;-86
2023/02/27 06:29:19;;;;;;;18.50;12.60;;;;;;;4.34;98.33;101086.91;109772;1251;59992;-87
2023/02/27 06:31:46;;;;;;;19.80;14.20;;;;;;;4.32;97.95;101087.14;109838;1251;72841;-85
2023/02/27 06:34:13;;;;;;;21.30;12.80;;;;;;;4.31;98.13;101088.91;109728;1253;63796;-88
2023/02/27 06:36:40;;;;;;;19.90;12.90;;;;;;;4.30;98.03;101093.95;109458;1253;72668;-86
2023/02/27 06:39:11;;;;;;;18.50;11.30;;;;;;;4.31;97.90;101092.02;109507;1252;60917;-87
2023/02/27 06:41:42;;;;;;;14.50;10.80;;;;;;;4.30;97.67;101093.61;109598;1252;59113;-88
2023/02/27 06:44:11;;;;;;;16.30;10.10;;;;;;;4.26;97.57;101094.92;109588;1252;72893;-87
2023/02/27 06:46:37;;;;;;;14.00;9.00;;;;;;;4.24;97.98;101099.48;107355;1253;63884;-87
2023/02/27 06:49:05;;;;;;;14.60;10.00;;;;;;;4.23;98.03;101099.33;106243;1259;72533;-85
2023/02/27 06:51:33;;;;;;;13.70;9.20;;;;;;;4.19;98.17;101097.02;107357;1255;59663;-85
2023/02/27 06:54:00;;;;;;;16.50;9.60;;;;;;;4.16;98.25;101093.80;106448;1257;60202;-87
2023/02/27 06:56:27;;;;;;;16.10;10.40;;;;;;;4.12;98.44;101088.00;106461;1254;72889;-86
2023/02/27 06:58:54;;;;;;;15.40;9.40;;;;;;;4.14;98.93;101090.89;106369;1257;65756;-86
2023/02/27 07:01:23;;;;;;;17.00;10.10;;;;;;;4.18;99.02;101081.81;106418;1253;73700;-88
2023/02/27 07:03:53;;;;;;;16.40;10.40;;;;;;;4.25;99.25;101077.48;106320;1253;62061;-87
2023/02/27 07:06:21;;;;;;;14.40;9.30;;;;;;;4.34;99.61;101078.25;106150;1253;60173;-86
2023/02/27 07:09:08;;;;;;;18.30;9.90;;;;;;;4.48;99.47;101074.77;106658;1257;73831;-83
2023/02/27 07:11:35;;;;;;;16.30;9.70;;;;;;;4.57;99.56;101075.38;107607;1252;64390;-87
2023/02/27 07:14:08;;;;;;;16.40;8.40;;;;;;;4.65;98.87;101075.70;107860;1253;72604;-87
2023/02/27 07:16:39;;;;;;;18.50;9.70;;;;;;;4.65;98.43;101073.29;107810;1256;60262;-87
2023/02/27 07:19:07;;;;;;;16.80;9.50;;;;;;;4.61;98.30;101072.69;107796;1253;60461;-89
2023/02/27 07:21:37;;;;;;;15.90;10.70;;;;;;;4.59;98.14;101077.23;107814;1253;72973;-87
2023/02/27 07:24:06;;;;;;;20.20;11.00;;;;;;;4.60;98.20;101075.30;107682;1253;64351;-87
2023/02/27 07:26:37;;;;;;;19.60;10.60;;;;;;;4.67;98.54;101079.80;107764;1252;74172;-88
2023/02/27 07:29:10;;;;;;;15.50;11.60;;;;;;;4.75;98.62;101078.69;107711;1253;61650;-86
2023/02/27 07:31:40;;;;;;;18.00;11.90;;;;;;;4.80;98.74;101082.02;107581;1253;60254;-86
2023/02/27 07:34:10;;;;;;;21.00;12.80;;;;;;;4.89;98.85;101080.55;107673;1253;72844;-86
2023/02/27 07:36:39;;;;;;;24.20;14.50;;;;;;;4.97;98.34;101086.04;107780;1254;63542;-86
2023/02/27 07:39:09;;;;;;;22.40;14.20;;;;;;;4.96;97.64;101086.91;107416;1253;72632;-86
2023/02/27 07:41:38;;;;;;;20.70;12.30;;;;;;;4.95;97.44;101097.18;108241;1253;60852;-89
2023/02/27 07:44:07;;;;;;;20.70;11.90;;;;;;;4.95;96.95;101096.30;107599;1252;61378;-86
2023/02/27 07:46:35;;;;;;;16.70;10.00;;;;;;;4.96;96.99;101094.55;107508;1253;74260;-86
2023/02/27 07:49:03;;;;;;;19.90;11.80;;;;;;;4.93;96.37;101090.28;106892;1253;64505;-87
2023/02/27 07:51:31;;;;;;;16.50;11.60;;;;;;;4.87;96.38;101092.21;107600;1253;73616;-85
2023/02/27 07:53:58;;;;;;;14.20;10.10;;;;;;;4.84;96.61;101085.20;107484;1252;60273;-87
2023/02/27 07:56:29;;;;;;;15.20;10.10;;;;;;;4.85;96.85;101088.29;107627;1253;61588;-88
2023/02/27 07:58:57;;;;;;;14.20;9.90;;;;;;;4.87;96.72;101089.09;108104;1253;73053;-87
2023/02/27 08:01:24;;;;;;;18.20;11.10;;;;;;;4.86;96.76;101085.83;107743;1253;64377;-88
2023/02/27 08:03:51;;;;;;;17.70;10.00;;;;;;;4.95;97.27;101090.42;107666;1253;73116;-87
2023/02/27 08:06:20;;;;;;;17.90;9.90;;;;;;;5.06;97.23;101091.48;107813;1257;62832;-86
2023/02/27 08:08:48;;;;;;;14.60;10.30;;;;;;;5.14;97.12;101091.58;107674;1255;59538;-86
2023/02/27 08:11:15;;;;;;;18.60;11.60;;;;;;;5.22;96.76;101090.50;108466;1252;72810;-88
2023/02/27 08:13:45;;;;;;;15.20;9.10;;;;;;;5.25;96.88;101094.58;109457;1252;63762;-89
2023/02/27 08:16:40;;;;;;;16.00;10.90;;;;;;;5.33;96.68;101090.84;109707;1252;72633;-87
2023/02/27 08:19:07;;;;;;;18.70;11.30;;;;;;;5.40;96.55;101093.24;109442;1252;60376;-87
2023/02/27 08:21:35;;;;;;;23.00;12.10;;;;;;;5.44;96.06;101092.77;109741;1252;59293;-86
2023/02/27 08:24:03;;;;;;;17.30;12.10;;;;;;;5.46;95.84;101092.70;109568;1252;72851;-88
2023/02/27 08:26:33;;;;;;;22.50;12.10;;;;;;;5.48;95.52;101098.70;109557;1252;63627;-87
2023/02/27 08:29:01;;;;;;;17.40;11.30;;;;;;;5.53;95.16;101096.45;109812;1252;72497;-85
2023/02/27 08:35:33;;;;;;;22.00;10.40;;;;;;;5.46;94.90;101089.23;109809;1252;60372;-87
2023/02/27 08:38:01;;;;;;;21.00;11.90;;;;;;;5.42;95.06;101086.06;109600;1252;73529;-87
2023/02/27 08:40:29;;;;;;;23.90;13.10;;;;;;;5.42;95.01;101092.83;109257;1256;63625;-87
2023/02/27 08:42:56;;;;;;;19.50;11.80;;;;;;;5.39;95.12;101099.15;109293;1256;72542;-86
2023/02/27 08:45:23;;;;;;;23.00;14.20;;;;;;;5.42;95.14;101105.31;109426;1257;60943;-86
2023/02/27 08:47:51;;;;;;;18.00;11.70;;;;;;;5.47;95.19;101108.46;109412;1256;60267;-86
2023/02/27 08:54:43;;;;;;;19.10;11.60;;;;;;;5.56;95.18;101113.73;107803;1256;62609;-86
2023/02/27 08:57:14;;;;;;;21.00;13.70;;;;;;;5.60;95.22;101113.23;108530;1250;72693;-85
2023/02/27 08:59:46;;;;;;;19.10;13.20;;;;;;;5.64;94.97;101106.89;107240;1257;60500;-89
2023/02/27 09:02:43;;;;;;;21.70;13.90;;;;;;;5.66;94.82;101107.50;107941;1254;59753;-86
2023/02/27 09:05:37;;;;;;;18.90;12.70;;;;;;;5.67;94.33;101105.39;108131;1254;74212;-86
2023/02/27 09:08:23;;;;;;;21.10;12.50;;;;;;;5.68;94.29;101105.02;108807;1257;62743;-87
2023/02/27 09:11:16;;;;;;;18.40;12.30;;;;;;;5.68;94.18;101106.58;108977;1254;72703;-88
2023/02/27 09:13:44;;;;;;;19.90;12.80;;;;;;;5.69;94.53;101107.42;107322;1261;61176;-86
2023/02/27 09:16:12;;;;;;;26.00;13.50;;;;;;;5.71;94.26;101107.88;107417;1254;60538;-86
2023/02/27 09:19:00;;;;;;;27.60;14.10;;;;;;;5.73;93.97;101108.15;107057;1259;73854;-86
2023/02/27 09:21:28;;;;;;;22.80;12.90;;;;;;;5.75;93.67;101107.56;106999;1254;64014;-85
2023/02/27 09:23:57;;;;;;;21.00;11.90;;;;;;;5.76;93.66;101098.52;107235;1260;73558;-86
2023/02/27 09:26:29;;;;;;;23.00;14.40;;;;;;;5.76;93.97;101097.83;106566;1254;61470;-89
2023/02/27 09:29:12;;;;;;;24.50;14.80;;;;;;;5.76;94.18;101110.30;106207;1254;60535;-87
2023/02/27 09:31:39;;;;;;;24.40;13.40;;;;;;;5.82;94.30;101107.20;106417;1254;71725;-85
2023/02/27 09:34:06;;;;;;;23.10;13.10;;;;;;;5.83;93.90;101100.73;106505;1254;63451;-86
2023/02/27 09:36:34;;;;;;;29.50;14.20;;;;;;;5.83;93.61;101100.02;106085;1256;73932;-87
2023/02/27 09:39:01;;;;;;;26.80;14.00;;;;;;;5.82;93.63;101095.53;106371;1259;63463;-89
2023/02/27 09:41:40;;;;;;;22.20;13.60;;;;;;;5.83;94.00;101093.45;106303;1254;61210;-86
2023/02/27 09:44:39;;;;;;;23.70;13.50;;;;;;;5.86;94.06;101093.33;106548;1254;74681;-87
2023/02/27 09:47:34;;;;;;;23.70;14.40;;;;;;;5.85;93.73;101092.34;106917;1254;64238;-86
2023/02/27 09:50:38;;;;;;;21.10;13.50;;;;;;;5.79;93.82;101086.26;106844;1254;72817;-88
2023/02/27 09:53:17;;;;;;;22.90;15.20;;;;;;;5.82;94.14;101092.25;106403;1254;60424;-88
2023/02/27 09:55:45;;;;;;;23.70;14.50;;;;;;;5.83;94.01;101089.79;107150;1257;60393;-85
2023/02/27 09:58:49;;;;;;;26.70;15.30;;;;;;;5.83;93.86;101087.71;107564;1254;73623;-87
2023/02/27 10:01:26;;;;;;;26.60;16.00;;;;;;;5.85;94.02;101085.40;105926;1259;64708;-89
2023/02/27 10:04:06;;;;;;;26.50;16.10;;;;;;;5.88;94.35;101089.13;105778;1254;73671;-89
2023/02/27 10:06:43;;;;;;;30.50;16.80;;;;;;;5.89;94.22;101083.71;105893;1254;61320;-87
2023/02/27 10:09:22;;;;;;;32.90;17.30;;;;;;;5.89;94.21;101079.02;106659;1254;61209;-84
2023/02/27 10:11:59;;;;;;;29.20;17.70;;;;;;;5.88;93.88;101081.29;106501;1259;75081;-87
2023/02/27 10:14:32;;;;;;;25.10;15.10;;;;;;;5.85;93.65;101072.05;105905;1254;64049;-86
2023/02/27 10:17:01;;;;;;;25.80;15.40;;;;;;;5.79;93.91;101066.16;105819;1254;72860;-85
2023/02/27 10:19:31;;;;;;;29.50;15.70;;;;;;;5.72;94.06;101068.42;106233;1254;62060;-86
2023/02/27 10:22:04;;;;;;;39.30;20.60;;;;;;;5.71;94.54;101066.92;106374;1254;61290;-88
2023/02/27 10:24:34;;;;;;;32.90;18.40;;;;;;;5.68;94.46;101061.47;105899;1254;74260;-88
2023/02/27 10:27:01;;;;;;;30.00;16.10;;;;;;;5.68;94.45;101063.74;105775;1260;64782;-88
2023/02/27 10:29:33;;;;;;;32.00;18.10;;;;;;;5.70;94.43;101063.14;106041;1254;73662;-87
2023/02/27 10:32:06;;;;;;;27.80;15.30;;;;;;;5.74;94.82;101061.98;105842;1258;61847;-87
2023/02/27 10:34:33;;;;;;;26.20;15.50;;;;;;;5.80;94.81;101067.33;105951;1257;61348;-87
2023/02/27 10:37:02;;;;;;;30.20;15.90;;;;;;;5.85;95.03;101057.63;105740;1259;74507;-85
2023/02/27 10:39:32;;;;;;;31.00;16.80;;;;;;;5.86;94.86;101056.21;105873;1259;64871;-87
2023/02/27 10:42:04;;;;;;;39.00;19.50;;;;;;;5.84;94.83;101060.80;105927;1259;72650;-86
2023/02/27 10:44:32;;;;;;;37.20;18.60;;;;;;;5.88;94.89;101060.31;105991;1258;62780;-88
2023/02/27 10:46:59;;;;;;;31.00;17.90;;;;;;;5.98;95.02;101056.52;105910;1254;60411;-87
2023/02/27 10:49:30;;;;;;;28.50;16.70;;;;;;;6.06;94.81;101066.66;105928;1254;74980;-86
2023/02/27 10:52:07;;;;;;;29.60;17.20;;;;;;;6.13;94.61;101069.54;105968;1259;64769;-89
2023/02/27 10:54:36;;;;;;;29.50;18.40;;;;;;;6.15;94.38;101080.77;108129;1254;72732;-86
2023/02/27 10:57:27;;;;;;;29.70;18.50;;;;;;;6.22;94.58;101092.50;107636;1256;60447;-88
2023/02/27 11:00:05;;;;;;;35.10;21.00;;;;;;;6.28;94.08;101095.27;107985;1254;60826;-87
2023/02/27 11:02:41;;;;;;;33.00;19.70;;;;;;;6.31;93.83;101107.85;108128;1254;74320;-88
2023/02/27 11:05:28;;;;;;;37.20;20.30;;;;;;;6.37;93.75;101117.52;108021;1254;63520;-87
2023/02/27 11:08:23;;;;;;;34.30;18.50;;;;;;;6.43;93.68;101112.09;108141;1254;74244;-86
2023/02/27 11:11:05;;;;;;;32.90;21.00;;;;;;;6.51;93.74;101114.95;108242;1254;60171;-85
2023/02/27 11:13:41;;;;;;;39.10;20.60;;;;;;;6.55;93.40;101112.71;107633;1257;59161;-86
2023/02/27 11:16:16;;;;;;;36.60;21.90;;;;;;;6.56;92.93;101115.47;107805;1259;73539;-87
2023/02/27 11:18:46;;;;;;;35.50;20.40;;;;;;;6.50;92.50;101119.70;108018;1254;62644;-87
2023/02/27 11:21:26;;;;;;;36.20;20.30;;;;;;;6.44;92.34;101118.65;107760;1254;72646;-88
2023/02/27 11:24:02;;;;;;;33.40;19.80;;;;;;;6.38;92.08;101112.97;107791;1254;60916;-86
2023/02/27 11:26:40;;;;;;;42.00;21.80;;;;;;;6.28;92.47;101116.79;106507;1254;61268;-86
2023/02/27 11:29:17;;;;;;;33.30;18.60;;;;;;;6.21;92.98;101121.89;107155;1254;72843;-85
2023/02/27 11:31:59;;;;;;;28.90;17.30;;;;;;;6.16;93.01;101123.80;107342;1254;63953;-87
2023/02/27 11:34:41;;;;;;;30.70;17.50;;;;;;;6.11;93.50;101121.20;108050;1254;72503;-86
2023/02/27 11:37:34;;;;;;;28.60;17.40;;;;;;;6.03;93.31;101118.66;108933;1254;61539;-86
2023/02/27 11:40:20;;;;;;;28.90;15.30;;;;;;;5.95;93.79;101119.80;109008;1254;60547;-85
2023/02/27 11:43:15;;;;;;;28.30;18.20;;;;;;;5.94;93.92;101123.98;108830;1254;73843;-88
2023/02/27 11:45:43;;;;;;;26.70;15.30;;;;;;;5.93;94.14;101134.59;107737;1258;63779;-87
2023/02/27 11:48:31;;;;;;;27.40;15.80;;;;;;;5.91;94.02;101132.05;109114;1254;72587;-87
2023/02/27 11:51:05;;;;;;;23.20;13.50;;;;;;;5.90;94.34;101138.84;109502;1254;60337;-87
2023/02/27 11:53:43;;;;;;;29.40;16.90;;;;;;;5.91;94.73;101140.20;108277;1254;60728;-87
2023/02/27 11:56:17;;;;;;;39.00;20.50;;;;;;;5.94;94.85;101141.50;108295;1254;73497;-88
2023/02/27 11:59:00;;;;;;;40.30;24.80;;;;;;;5.97;94.63;101144.39;107274;1254;64017;-87
2023/02/27 12:01:34;;;;;;;26.60;16.10;;;;;;;5.96;94.45;101143.73;106640;1256;73733;-86